sensor_id;sensor_type;location;lat;lon;timestamp;pressure;altitude;pressure_sealevel;temperature;humidity
4586;BME280;2305;50.118;8.952;2022-11-20T00:01:35;100198.41;;;4.66;100.00
4586;BME280;2305;50.118;8.952;2022-11-20T00:04:03;100198.41;;;4.66;100.00
4586;BME280;2305;50.118;8.952;2022-11-20T00:06:32;100197.56;;;4.65;100.00
4586;BME280;2305;50.118;8.952;2022-11-20T00:09:00;100209.59;;;4.68;100.00
4586;BME280;2305;50.118;8.952;2022-11-20T00:11:30;100200.81;;;4.69;100.00
4586;BME280;2305;50.118;8.952;2022-11-20T00:14:00;100206.88;;;4.69;100.00
4586;BME280;2305;50.118;8.952;2022-11-20T00:16:32;100198.78;;;4.74;100.00
4586;BME280;2305;50.118;8.952;2022-11-20T00:19:02;100196.19;;;4.74;100.00
4586;BME280;2305;50.118;8.952;2022-11-20T00:21:30;100191.13;;;4.71;100.00
4586;BME280;2305;50.118;8.952;2022-11-20T00:23:59;100196.34;;;4.71;100.00
4586;BME280;2305;50.118;8.952;2022-11-20T00:26:28;100197.94;;;4.73;100.00
4586;BME280;2305;50.118;8.952;2022-11-20T00:28:58;100190.03;;;4.75;100.00
4586;BME280;2305;50.118;8.952;2022-11-20T00:31:27;100184.81;;;4.75;100.00
4586;BME280;2305;50.118;8.952;2022-11-20T00:33:57;100179.28;;;4.65;100.00
4586;BME280;2305;50.118;8.952;2022-11-20T00:36:28;100172.47;;;4.63;100.00
4586;BME280;2305;50.118;8.952;2022-11-20T00:38:59;100173.41;;;4.62;100.00
4586;BME280;2305;50.118;8.952;2022-11-20T00:41:28;100170.81;;;4.62;100.00
4586;BME280;2305;50.118;8.952;2022-11-20T00:43:57;100180.38;;;4.61;100.00
4586;BME280;2305;50.118;8.952;2022-11-20T00:46:26;100186.66;;;4.59;100.00
4586;BME280;2305;50.118;8.952;2022-11-20T00:48:56;100181.25;;;4.62;100.00
4586;BME280;2305;50.118;8.952;2022-11-20T00:51:26;100183.84;;;4.62;100.00
4586;BME280;2305;50.118;8.952;2022-11-20T00:53:55;100174.25;;;4.62;100.00
4586;BME280;2305;50.118;8.952;2022-11-20T00:56:24;100181.91;;;4.65;100.00
4586;BME280;2305;50.118;8.952;2022-11-20T00:58:54;100170.50;;;4.52;100.00
4586;BME280;2305;50.118;8.952;2022-11-20T01:01:24;100182.44;;;4.56;100.00
4586;BME280;2305;50.118;8.952;2022-11-20T01:03:54;100188.50;;;4.57;100.00
4586;BME280;2305;50.118;8.952;2022-11-20T01:06:25;100172.94;;;4.55;100.00
4586;BME280;2305;50.118;8.952;2022-11-20T01:08:56;100166.97;;;4.53;100.00
4586;BME280;2305;50.118;8.952;2022-11-20T01:11:26;100169.56;;;4.53;100.00
4586;BME280;2305;50.118;8.952;2022-11-20T01:13:55;100178.16;;;4.55;100.00
4586;BME280;2305;50.118;8.952;2022-11-20T01:16:26;100183.38;;;4.55;100.00
4586;BME280;2305;50.118;8.952;2022-11-20T01:18:57;100176.38;;;4.56;100.00
4586;BME280;2305;50.118;8.952;2022-11-20T01:21:30;100172.69;;;4.60;100.00
4586;BME280;2305;50.118;8.952;2022-11-20T01:24:00;100156.75;;;4.64;100.00
4586;BME280;2305;50.118;8.952;2022-11-20T01:26:32;100169.59;;;4.67;100.00
4586;BME280;2305;50.118;8.952;2022-11-20T01:29:01;100170.53;;;4.66;100.00
4586;BME280;2305;50.118;8.952;2022-11-20T01:31:31;100182.63;;;4.67;100.00
4586;BME280;2305;50.118;8.952;2022-11-20T01:34:04;100181.31;;;4.60;100.00
4586;BME280;2305;50.118;8.952;2022-11-20T01:36:36;100169.88;;;4.63;100.00
4586;BME280;2305;50.118;8.952;2022-11-20T01:39:07;100175.00;;;4.64;100.00
4586;BME280;2305;50.118;8.952;2022-11-20T01:41:35;100174.91;;;4.66;100.00
4586;BME280;2305;50.118;8.952;2022-11-20T01:44:22;100167.09;;;4.66;100.00
4586;BME280;2305;50.118;8.952;2022-11-20T01:47:14;100162.78;;;4.65;100.00
4586;BME280;2305;50.118;8.952;2022-11-20T01:49:48;100153.94;;;4.67;100.00
4586;BME280;2305;50.118;8.952;2022-11-20T01:52:20;100149.66;;;4.66;100.00
4586;BME280;2305;50.118;8.952;2022-11-20T01:54:52;100151.31;;;4.67;100.00
4586;BME280;2305;50.118;8.952;2022-11-20T01:57:24;100143.63;;;4.66;100.00
4586;BME280;2305;50.118;8.952;2022-11-20T01:59:56;100150.78;;;4.62;100.00
4586;BME280;2305;50.118;8.952;2022-11-20T02:02:26;100158.41;;;4.65;100.00
4586;BME280;2305;50.118;8.952;2022-11-20T02:05:02;100153.19;;;4.65;100.00
4586;BME280;2305;50.118;8.952;2022-11-20T02:07:32;100148.06;;;4.64;100.00
4586;BME280;2305;50.118;8.952;2022-11-20T02:10:03;100150.13;;;4.59;100.00
4586;BME280;2305;50.118;8.952;2022-11-20T02:12:31;100146.22;;;4.52;100.00
4586;BME280;2305;50.118;8.952;2022-11-20T02:15:16;100146.50;;;4.47;100.00
4586;BME280;2305;50.118;8.952;2022-11-20T02:17:46;100145.56;;;4.48;100.00
4586;BME280;2305;50.118;8.952;2022-11-20T02:20:14;100154.78;;;4.54;100.00
4586;BME280;2305;50.118;8.952;2022-11-20T02:22:48;100157.31;;;4.55;100.00
4586;BME280;2305;50.118;8.952;2022-11-20T02:25:21;100156.25;;;4.58;100.00
4586;BME280;2305;50.118;8.952;2022-11-20T02:27:50;100157.09;;;4.58;100.00
4586;BME280;2305;50.118;8.952;2022-11-20T02:30:18;100147.53;;;4.59;100.00
4586;BME280;2305;50.118;8.952;2022-11-20T02:32:46;100141.44;;;4.58;100.00
4586;BME280;2305;50.118;8.952;2022-11-20T02:35:39;100142.38;;;4.57;100.00
4586;BME280;2305;50.118;8.952;2022-11-20T02:38:08;100139.78;;;4.57;100.00
4586;BME280;2305;50.118;8.952;2022-11-20T02:40:38;100152.31;;;4.51;100.00
4586;BME280;2305;50.118;8.952;2022-11-20T02:43:08;100156.53;;;4.53;100.00
4586;BME280;2305;50.118;8.952;2022-11-20T02:45:37;100149.56;;;4.54;100.00
4586;BME280;2305;50.118;8.952;2022-11-20T02:48:08;100145.44;;;4.50;100.00
4586;BME280;2305;50.118;8.952;2022-11-20T02:50:37;100130.84;;;4.47;100.00
4586;BME280;2305;50.118;8.952;2022-11-20T02:53:06;100126.53;;;4.46;100.00
4586;BME280;2305;50.118;8.952;2022-11-20T02:55:35;100136.13;;;4.46;100.00
4586;BME280;2305;50.118;8.952;2022-11-20T02:58:05;100136.88;;;4.48;100.00
4586;BME280;2305;50.118;8.952;2022-11-20T03:00:33;100130.56;;;4.52;100.00
4586;BME280;2305;50.118;8.952;2022-11-20T03:03:04;100131.56;;;4.49;100.00
4586;BME280;2305;50.118;8.952;2022-11-20T03:05:32;100136.88;;;4.48;100.00
4586;BME280;2305;50.118;8.952;2022-11-20T03:08:00;100144.03;;;4.44;100.00
4586;BME280;2305;50.118;8.952;2022-11-20T03:10:30;100139.69;;;4.45;100.00
4586;BME280;2305;50.118;8.952;2022-11-20T03:12:59;100133.88;;;4.40;100.00
4586;BME280;2305;50.118;8.952;2022-11-20T03:15:31;100129.25;;;4.45;100.00
4586;BME280;2305;50.118;8.952;2022-11-20T03:17:59;100142.00;;;4.49;100.00
4586;BME280;2305;50.118;8.952;2022-11-20T03:20:27;100137.81;;;4.47;100.00
4586;BME280;2305;50.118;8.952;2022-11-20T03:22:54;100143.09;;;4.45;100.00
4586;BME280;2305;50.118;8.952;2022-11-20T03:25:23;100146.38;;;4.49;100.00
4586;BME280;2305;50.118;8.952;2022-11-20T03:27:51;100147.22;;;4.49;100.00
4586;BME280;2305;50.118;8.952;2022-11-20T03:30:19;100128.03;;;4.50;100.00
4586;BME280;2305;50.118;8.952;2022-11-20T03:32:54;100137.44;;;4.53;100.00
4586;BME280;2305;50.118;8.952;2022-11-20T03:35:22;100140.22;;;4.50;100.00
4586;BME280;2305;50.118;8.952;2022-11-20T03:37:52;100136.06;;;4.47;100.00
4586;BME280;2305;50.118;8.952;2022-11-20T03:40:20;100128.31;;;4.46;100.00
4586;BME280;2305;50.118;8.952;2022-11-20T03:42:48;100125.69;;;4.46;100.00
4586;BME280;2305;50.118;8.952;2022-11-20T03:45:17;100111.06;;;4.43;100.00
4586;BME280;2305;50.118;8.952;2022-11-20T03:47:46;100114.78;;;4.39;100.00
4586;BME280;2305;50.118;8.952;2022-11-20T03:50:16;100120.28;;;4.35;100.00
4586;BME280;2305;50.118;8.952;2022-11-20T03:52:44;100124.38;;;4.39;100.00
4586;BME280;2305;50.118;8.952;2022-11-20T03:55:12;100137.06;;;4.45;100.00
4586;BME280;2305;50.118;8.952;2022-11-20T03:57:40;100127.38;;;4.47;100.00
4586;BME280;2305;50.118;8.952;2022-11-20T04:00:09;100125.78;;;4.44;100.00
4586;BME280;2305;50.118;8.952;2022-11-20T04:02:37;100125.88;;;4.43;100.00
4586;BME280;2305;50.118;8.952;2022-11-20T04:05:06;100132.13;;;4.40;100.00
4586;BME280;2305;50.118;8.952;2022-11-20T04:07:35;100125.41;;;4.36;100.00
4586;BME280;2305;50.118;8.952;2022-11-20T04:10:04;100122.72;;;4.38;100.00
4586;BME280;2305;50.118;8.952;2022-11-20T04:12:33;100129.59;;;4.39;100.00
4586;BME280;2305;50.118;8.952;2022-11-20T04:15:01;100133.25;;;4.50;100.00
4586;BME280;2305;50.118;8.952;2022-11-20T04:17:29;100124.69;;;4.48;100.00
4586;BME280;2305;50.118;8.952;2022-11-20T04:19:57;100127.00;;;4.39;100.00
4586;BME280;2305;50.118;8.952;2022-11-20T04:22:26;100109.97;;;4.33;100.00
4586;BME280;2305;50.118;8.952;2022-11-20T04:24:55;100119.53;;;4.33;100.00
4586;BME280;2305;50.118;8.952;2022-11-20T04:27:23;100114.25;;;4.34;100.00
4586;BME280;2305;50.118;8.952;2022-11-20T04:29:51;100102.22;;;4.32;100.00
4586;BME280;2305;50.118;8.952;2022-11-20T04:32:19;100112.81;;;4.29;100.00
4586;BME280;2305;50.118;8.952;2022-11-20T04:34:47;100112.91;;;4.28;100.00
4586;BME280;2305;50.118;8.952;2022-11-20T04:37:15;100119.91;;;4.27;100.00
4586;BME280;2305;50.118;8.952;2022-11-20T04:39:46;100109.53;;;4.25;100.00
4586;BME280;2305;50.118;8.952;2022-11-20T04:42:15;100107.13;;;4.22;100.00
4586;BME280;2305;50.118;8.952;2022-11-20T04:44:58;100096.03;;;4.19;100.00
4586;BME280;2305;50.118;8.952;2022-11-20T04:47:28;100103.66;;;4.22;100.00
4586;BME280;2305;50.118;8.952;2022-11-20T04:49:56;100101.91;;;4.22;100.00
4586;BME280;2305;50.118;8.952;2022-11-20T04:52:24;100100.97;;;4.23;100.00
4586;BME280;2305;50.118;8.952;2022-11-20T04:54:52;100107.22;;;4.21;100.00
4586;BME280;2305;50.118;8.952;2022-11-20T04:57:22;100111.41;;;4.23;100.00
4586;BME280;2305;50.118;8.952;2022-11-20T04:59:50;100107.88;;;4.24;100.00
4586;BME280;2305;50.118;8.952;2022-11-20T05:02:18;100101.84;;;4.24;100.00
4586;BME280;2305;50.118;8.952;2022-11-20T05:04:46;100099.22;;;4.24;100.00
4586;BME280;2305;50.118;8.952;2022-11-20T05:07:14;100088.59;;;4.27;100.00
4586;BME280;2305;50.118;8.952;2022-11-20T05:09:42;100099.03;;;4.27;100.00
4586;BME280;2305;50.118;8.952;2022-11-20T05:12:10;100095.31;;;4.31;100.00
4586;BME280;2305;50.118;8.952;2022-11-20T05:14:40;100095.31;;;4.31;100.00
4586;BME280;2305;50.118;8.952;2022-11-20T05:17:10;100086.56;;;4.32;100.00
4586;BME280;2305;50.118;8.952;2022-11-20T05:19:40;100078.91;;;4.29;100.00
4586;BME280;2305;50.118;8.952;2022-11-20T05:22:08;100084.97;;;4.29;100.00
4586;BME280;2305;50.118;8.952;2022-11-20T05:24:36;100083.38;;;4.27;100.00
4586;BME280;2305;50.118;8.952;2022-11-20T05:27:04;100086.00;;;4.27;100.00
4586;BME280;2305;50.118;8.952;2022-11-20T05:29:32;100081.72;;;4.26;100.00
4586;BME280;2305;50.118;8.952;2022-11-20T05:32:02;100081.16;;;4.21;100.00
4586;BME280;2305;50.118;8.952;2022-11-20T05:34:32;100075.84;;;4.22;100.00
4586;BME280;2305;50.118;8.952;2022-11-20T05:37:00;100080.22;;;4.22;100.00
4586;BME280;2305;50.118;8.952;2022-11-20T05:39:31;100083.94;;;4.18;100.00
4586;BME280;2305;50.118;8.952;2022-11-20T05:42:01;100088.13;;;4.21;100.00
4586;BME280;2305;50.118;8.952;2022-11-20T05:44:47;100094.09;;;4.22;100.00
4586;BME280;2305;50.118;8.952;2022-11-20T05:47:16;100084.41;;;4.24;100.00
4586;BME280;2305;50.118;8.952;2022-11-20T05:49:44;100088.59;;;4.27;100.00
4586;BME280;2305;50.118;8.952;2022-11-20T05:52:13;100086.94;;;4.26;100.00
4586;BME280;2305;50.118;8.952;2022-11-20T05:54:41;100093.91;;;4.25;100.00
4586;BME280;2305;50.118;8.952;2022-11-20T05:57:11;100081.91;;;4.23;100.00
4586;BME280;2305;50.118;8.952;2022-11-20T05:59:39;100090.63;;;4.22;100.00
4586;BME280;2305;50.118;8.952;2022-11-20T06:02:07;100085.19;;;4.27;100.00
4586;BME280;2305;50.118;8.952;2022-11-20T06:04:40;100092.16;;;4.26;100.00
4586;BME280;2305;50.118;8.952;2022-11-20T06:07:08;100091.22;;;4.27;100.00
4586;BME280;2305;50.118;8.952;2022-11-20T06:09:36;100087.00;;;4.24;100.00
4586;BME280;2305;50.118;8.952;2022-11-20T06:12:05;100085.25;;;4.25;100.00
4586;BME280;2305;50.118;8.952;2022-11-20T06:14:33;100092.34;;;4.23;100.00
4586;BME280;2305;50.118;8.952;2022-11-20T06:17:01;100094.75;;;4.26;100.00
4586;BME280;2305;50.118;8.952;2022-11-20T06:19:29;100091.22;;;4.27;100.00
4586;BME280;2305;50.118;8.952;2022-11-20T06:22:03;100091.78;;;4.32;100.00
4586;BME280;2305;50.118;8.952;2022-11-20T06:24:31;100084.31;;;4.26;100.00
4586;BME280;2305;50.118;8.952;2022-11-20T06:26:59;100092.59;;;4.18;100.00
4586;BME280;2305;50.118;8.952;2022-11-20T06:29:27;100097.91;;;4.17;100.00
4586;BME280;2305;50.118;8.952;2022-11-20T06:31:59;100099.41;;;4.21;100.00
4586;BME280;2305;50.118;8.952;2022-11-20T06:34:30;100097.91;;;4.17;100.00
4586;BME280;2305;50.118;8.952;2022-11-20T06:36:58;100100.41;;;4.18;100.00
4586;BME280;2305;50.118;8.952;2022-11-20T06:39:30;100095.84;;;4.22;100.00
4586;BME280;2305;50.118;8.952;2022-11-20T06:41:59;100107.78;;;4.26;100.00
4586;BME280;2305;50.118;8.952;2022-11-20T06:44:27;100107.13;;;4.22;100.00
4586;BME280;2305;50.118;8.952;2022-11-20T06:46:55;100114.09;;;4.22;100.00
4586;BME280;2305;50.118;8.952;2022-11-20T06:49:22;100106.19;;;4.23;100.00
4586;BME280;2305;50.118;8.952;2022-11-20T06:51:51;100104.59;;;4.21;100.00
4586;BME280;2305;50.118;8.952;2022-11-20T06:54:20;100086.28;;;4.22;100.00
4586;BME280;2305;50.118;8.952;2022-11-20T06:56:49;100093.44;;;4.19;100.00
4586;BME280;2305;50.118;8.952;2022-11-20T06:59:17;100095.84;;;4.22;100.00
4586;BME280;2305;50.118;8.952;2022-11-20T07:01:46;100097.16;;;4.15;100.00
4586;BME280;2305;50.118;8.952;2022-11-20T07:04:15;100094.66;;;4.14;100.00
4586;BME280;2305;50.118;8.952;2022-11-20T07:06:48;100096.97;;;4.18;100.00
4586;BME280;2305;50.118;8.952;2022-11-20T07:09:17;100101.19;;;4.21;100.00
4586;BME280;2305;50.118;8.952;2022-11-20T07:11:45;100108.50;;;4.14;100.00
4586;BME280;2305;50.118;8.952;2022-11-20T07:14:14;100111.88;;;4.16;100.00
4586;BME280;2305;50.118;8.952;2022-11-20T07:16:43;100109.09;;;4.19;100.00
4586;BME280;2305;50.118;8.952;2022-11-20T07:19:11;100105.63;;;4.18;100.00
4586;BME280;2305;50.118;8.952;2022-11-20T07:21:39;100103.88;;;4.19;100.00
4586;BME280;2305;50.118;8.952;2022-11-20T07:24:07;100098.56;;;4.21;100.00
4586;BME280;2305;50.118;8.952;2022-11-20T07:26:35;100105.16;;;4.12;100.00
4586;BME280;2305;50.118;8.952;2022-11-20T07:29:04;100094.72;;;4.12;100.00
4586;BME280;2305;50.118;8.952;2022-11-20T07:31:36;100090.91;;;4.18;100.00
4586;BME280;2305;50.118;8.952;2022-11-20T07:34:04;100097.81;;;4.18;100.00
4586;BME280;2305;50.118;8.952;2022-11-20T07:36:33;100091.84;;;4.17;100.00
4586;BME280;2305;50.118;8.952;2022-11-20T07:39:03;100088.97;;;4.21;100.00
4586;BME280;2305;50.118;8.952;2022-11-20T07:41:31;100099.22;;;4.24;100.00
4586;BME280;2305;50.118;8.952;2022-11-20T07:43:59;100094.75;;;4.26;100.00
4586;BME280;2305;50.118;8.952;2022-11-20T07:46:29;100085.34;;;4.23;100.00
4586;BME280;2305;50.118;8.952;2022-11-20T07:48:58;100088.78;;;4.24;100.00
4586;BME280;2305;50.118;8.952;2022-11-20T07:51:28;100109.44;;;4.13;100.00
4586;BME280;2305;50.118;8.952;2022-11-20T07:53:57;100092.88;;;4.14;100.00
4586;BME280;2305;50.118;8.952;2022-11-20T07:56:25;100110.28;;;4.14;100.00
4586;BME280;2305;50.118;8.952;2022-11-20T07:58:53;100124.50;;;4.08;100.00
4586;BME280;2305;50.118;8.952;2022-11-20T08:01:21;100112.50;;;4.06;100.00
4586;BME280;2305;50.118;8.952;2022-11-20T08:03:50;100114.19;;;4.07;100.00
4586;BME280;2305;50.118;8.952;2022-11-20T08:06:19;100112.91;;;4.14;100.00
4586;BME280;2305;50.118;8.952;2022-11-20T08:08:47;100118.56;;;4.20;100.00
4586;BME280;2305;50.118;8.952;2022-11-20T08:11:15;100118.22;;;4.26;100.00
4586;BME280;2305;50.118;8.952;2022-11-20T08:14:01;100120.56;;;4.30;100.00
4586;BME280;2305;50.118;8.952;2022-11-20T08:16:43;100124.66;;;4.34;100.00
4586;BME280;2305;50.118;8.952;2022-11-20T08:19:11;100121.94;;;4.36;100.00
4586;BME280;2305;50.118;8.952;2022-11-20T08:21:42;100129.03;;;4.48;100.00
4586;BME280;2305;50.118;8.952;2022-11-20T08:24:11;100125.88;;;4.57;100.00
4586;BME280;2305;50.118;8.952;2022-11-20T08:26:40;100128.78;;;4.66;100.00
4586;BME280;2305;50.118;8.952;2022-11-20T08:29:08;100124.13;;;4.71;100.00
4586;BME280;2305;50.118;8.952;2022-11-20T08:31:36;100130.00;;;4.75;100.00
4586;BME280;2305;50.118;8.952;2022-11-20T08:34:04;100133.44;;;4.75;100.00
4586;BME280;2305;50.118;8.952;2022-11-20T08:36:35;100125.72;;;4.74;100.00
4586;BME280;2305;50.118;8.952;2022-11-20T08:39:05;100132.25;;;4.67;100.00
4586;BME280;2305;50.118;8.952;2022-11-20T08:41:33;100139.13;;;4.68;100.00
4586;BME280;2305;50.118;8.952;2022-11-20T08:44:04;100143.69;;;4.64;100.00
4586;BME280;2305;50.118;8.952;2022-11-20T08:46:35;100147.03;;;4.66;100.00
4586;BME280;2305;50.118;8.952;2022-11-20T08:49:04;100144.25;;;4.69;100.00
4586;BME280;2305;50.118;8.952;2022-11-20T08:51:32;100146.97;;;4.68;100.00
4586;BME280;2305;50.118;8.952;2022-11-20T08:54:01;100150.13;;;4.73;100.00
4586;BME280;2305;50.118;8.952;2022-11-20T08:56:31;100153.66;;;4.86;100.00
4586;BME280;2305;50.118;8.952;2022-11-20T08:58:59;100159.28;;;4.94;100.00
4586;BME280;2305;50.118;8.952;2022-11-20T09:01:48;100155.06;;;4.91;100.00
4586;BME280;2305;50.118;8.952;2022-11-20T09:04:16;100158.50;;;4.92;100.00
4586;BME280;2305;50.118;8.952;2022-11-20T09:06:45;100155.81;;;4.93;100.00
4586;BME280;2305;50.118;8.952;2022-11-20T09:09:18;100164.28;;;4.97;100.00
4586;BME280;2305;50.118;8.952;2022-11-20T09:11:48;100155.72;;;4.95;100.00
4586;BME280;2305;50.118;8.952;2022-11-20T09:14:18;100153.00;;;4.96;100.00
4586;BME280;2305;50.118;8.952;2022-11-20T09:16:49;100157.97;;;5.01;100.00
4586;BME280;2305;50.118;8.952;2022-11-20T09:19:17;100156.00;;;5.04;100.00
4586;BME280;2305;50.118;8.952;2022-11-20T09:22:06;100155.16;;;5.04;100.00
4586;BME280;2305;50.118;8.952;2022-11-20T09:24:35;100150.38;;;5.10;100.00
4586;BME280;2305;50.118;8.952;2022-11-20T09:27:09;100139.25;;;5.21;100.00
4586;BME280;2305;50.118;8.952;2022-11-20T09:29:37;100139.53;;;5.30;100.00
4586;BME280;2305;50.118;8.952;2022-11-20T09:32:06;100145.03;;;5.40;100.00
4586;BME280;2305;50.118;8.952;2022-11-20T09:34:34;100142.03;;;5.46;100.00
4586;BME280;2305;50.118;8.952;2022-11-20T09:37:02;100153.94;;;5.50;100.00
4586;BME280;2305;50.118;8.952;2022-11-20T09:39:33;100156.00;;;5.59;100.00
4586;BME280;2305;50.118;8.952;2022-11-20T09:42:39;100157.44;;;5.63;100.00
4586;BME280;2305;50.118;8.952;2022-11-20T09:45:16;100159.13;;;5.64;100.00
4586;BME280;2305;50.118;8.952;2022-11-20T09:48:00;100149.63;;;5.63;100.00
4586;BME280;2305;50.118;8.952;2022-11-20T09:50:32;100152.38;;;5.74;100.00
4586;BME280;2305;50.118;8.952;2022-11-20T09:53:12;100153.31;;;5.73;100.00
4586;BME280;2305;50.118;8.952;2022-11-20T09:55:41;100145.66;;;5.70;100.00
4586;BME280;2305;50.118;8.952;2022-11-20T09:58:22;100143.19;;;5.68;100.00
4586;BME280;2305;50.118;8.952;2022-11-20T10:01:00;100132.50;;;5.71;100.00
4586;BME280;2305;50.118;8.952;2022-11-20T10:03:39;100138.84;;;5.81;100.00
4586;BME280;2305;50.118;8.952;2022-11-20T10:06:13;100137.66;;;5.99;100.00
4586;BME280;2305;50.118;8.952;2022-11-20T10:08:45;100121.97;;;6.12;100.00
4586;BME280;2305;50.118;8.952;2022-11-20T10:11:26;100122.84;;;6.25;100.00
4586;BME280;2305;50.118;8.952;2022-11-20T10:14:07;100132.16;;;6.29;100.00
4586;BME280;2305;50.118;8.952;2022-11-20T10:16:51;100126.00;;;6.30;100.00
4586;BME280;2305;50.118;8.952;2022-11-20T10:19:35;100120.75;;;6.30;100.00
4586;BME280;2305;50.118;8.952;2022-11-20T10:22:13;100108.63;;;6.29;100.00
4586;BME280;2305;50.118;8.952;2022-11-20T10:24:48;100120.13;;;6.26;100.00
4586;BME280;2305;50.118;8.952;2022-11-20T10:27:37;100115.63;;;6.28;100.00
4586;BME280;2305;50.118;8.952;2022-11-20T10:30:12;100115.22;;;6.34;100.00
4586;BME280;2305;50.118;8.952;2022-11-20T10:32:42;100113.41;;;6.35;100.00
4586;BME280;2305;50.118;8.952;2022-11-20T10:35:20;100115.63;;;6.41;100.00
4586;BME280;2305;50.118;8.952;2022-11-20T10:37:51;100107.38;;;6.34;100.00
4586;BME280;2305;50.118;8.952;2022-11-20T10:40:29;100104.84;;;6.33;100.00
4586;BME280;2305;50.118;8.952;2022-11-20T10:43:02;100106.09;;;6.27;100.00
4586;BME280;2305;50.118;8.952;2022-11-20T10:45:38;100109.75;;;6.25;100.00
4586;BME280;2305;50.118;8.952;2022-11-20T10:48:12;100107.38;;;6.22;100.00
4586;BME280;2305;50.118;8.952;2022-11-20T10:50:53;100110.88;;;6.21;100.00
4586;BME280;2305;50.118;8.952;2022-11-20T10:53:40;100108.19;;;6.22;100.00
4586;BME280;2305;50.118;8.952;2022-11-20T10:56:17;100110.78;;;6.22;100.00
4586;BME280;2305;50.118;8.952;2022-11-20T10:59:04;100108.28;;;6.21;100.00
4586;BME280;2305;50.118;8.952;2022-11-20T11:01:41;100100.44;;;6.21;100.00
4586;BME280;2305;50.118;8.952;2022-11-20T11:04:26;100107.47;;;6.20;100.00
4586;BME280;2305;50.118;8.952;2022-11-20T11:07:05;100107.47;;;6.20;100.00
4586;BME280;2305;50.118;8.952;2022-11-20T11:09:41;100102.00;;;6.23;100.00
4586;BME280;2305;50.118;8.952;2022-11-20T11:12:11;100095.72;;;6.26;100.00
4586;BME280;2305;50.118;8.952;2022-11-20T11:14:47;100093.84;;;6.28;100.00
4586;BME280;2305;50.118;8.952;2022-11-20T11:17:26;100090.59;;;6.24;100.00
4586;BME280;2305;50.118;8.952;2022-11-20T11:20:00;100077.75;;;6.21;100.00
4586;BME280;2305;50.118;8.952;2022-11-20T11:22:30;100084.53;;;6.24;100.00
4586;BME280;2305;50.118;8.952;2022-11-20T11:24:59;100079.31;;;6.24;100.00
4586;BME280;2305;50.118;8.952;2022-11-20T11:27:28;100070.00;;;6.20;100.00
4586;BME280;2305;50.118;8.952;2022-11-20T11:30:18;100074.50;;;6.18;100.00
4586;BME280;2305;50.118;8.952;2022-11-20T11:32:48;100077.84;;;6.20;100.00
4586;BME280;2305;50.118;8.952;2022-11-20T11:35:24;100067.38;;;6.20;100.00
4586;BME280;2305;50.118;8.952;2022-11-20T11:38:03;100073.44;;;6.20;100.00
4586;BME280;2305;50.118;8.952;2022-11-20T11:40:35;100074.28;;;6.21;100.00
4586;BME280;2305;50.118;8.952;2022-11-20T11:43:06;100069.78;;;6.23;100.00
4586;BME280;2305;50.118;8.952;2022-11-20T11:48:58;100064.66;;;6.21;100.00
4586;BME280;2305;50.118;8.952;2022-11-20T11:51:32;100062.75;;;6.23;100.00
4586;BME280;2305;50.118;8.952;2022-11-20T11:54:06;100057.13;;;6.29;100.00
4586;BME280;2305;50.118;8.952;2022-11-20T11:56:44;100049.19;;;6.31;100.00
4586;BME280;2305;50.118;8.952;2022-11-20T11:59:18;100050.94;;;6.30;100.00
4586;BME280;2305;50.118;8.952;2022-11-20T12:01:55;100051.88;;;6.29;100.00
4586;BME280;2305;50.118;8.952;2022-11-20T12:04:39;100055.44;;;6.28;100.00
4586;BME280;2305;50.118;8.952;2022-11-20T12:07:20;100051.25;;;6.26;100.00
4586;BME280;2305;50.118;8.952;2022-11-20T12:10:20;100044.13;;;6.28;100.00
4586;BME280;2305;50.118;8.952;2022-11-20T12:12:52;100045.72;;;6.30;100.00
4586;BME280;2305;50.118;8.952;2022-11-20T12:15:27;100043.84;;;6.32;100.00
4586;BME280;2305;50.118;8.952;2022-11-20T12:17:59;100046.34;;;6.34;100.00
4586;BME280;2305;50.118;8.952;2022-11-20T12:20:32;100046.03;;;6.38;100.00
4586;BME280;2305;50.118;8.952;2022-11-20T12:23:07;100041.22;;;6.45;100.00
4586;BME280;2305;50.118;8.952;2022-11-20T12:25:41;100046.44;;;6.45;100.00
4586;BME280;2305;50.118;8.952;2022-11-20T12:28:28;100047.09;;;6.36;100.00
4586;BME280;2305;50.118;8.952;2022-11-20T12:31:15;100042.78;;;6.35;100.00
4586;BME280;2305;50.118;8.952;2022-11-20T12:34:02;100040.38;;;6.32;100.00
4586;BME280;2305;50.118;8.952;2022-11-20T12:36:40;100033.47;;;6.31;100.00
4586;BME280;2305;50.118;8.952;2022-11-20T12:39:25;100028.44;;;6.28;100.00
4586;BME280;2305;50.118;8.952;2022-11-20T12:42:11;100025.53;;;6.32;100.00
4586;BME280;2305;50.118;8.952;2022-11-20T12:45:20;100023.41;;;6.37;100.00
4586;BME280;2305;50.118;8.952;2022-11-20T12:48:07;100030.94;;;6.42;100.00
4586;BME280;2305;50.118;8.952;2022-11-20T12:50:49;100029.41;;;6.39;100.00
4586;BME280;2305;50.118;8.952;2022-11-20T12:53:54;100029.81;;;6.46;100.00
4586;BME280;2305;50.118;8.952;2022-11-20T12:56:33;100042.78;;;6.47;100.00
4586;BME280;2305;50.118;8.952;2022-11-20T12:59:33;100036.31;;;6.40;100.00
4586;BME280;2305;50.118;8.952;2022-11-20T13:02:13;100031.16;;;6.39;100.00
4586;BME280;2305;50.118;8.952;2022-11-20T13:05:04;100036.00;;;6.32;100.00
4586;BME280;2305;50.118;8.952;2022-11-20T13:07:38;100021.75;;;6.36;100.00
4586;BME280;2305;50.118;8.952;2022-11-20T13:10:16;100020.94;;;6.36;100.00
4586;BME280;2305;50.118;8.952;2022-11-20T13:12:54;100019.84;;;6.38;100.00
4586;BME280;2305;50.118;8.952;2022-11-20T13:15:35;100020.28;;;6.45;100.00
4586;BME280;2305;50.118;8.952;2022-11-20T13:18:09;100006.78;;;6.51;100.00
4586;BME280;2305;50.118;8.952;2022-11-20T13:20:42;100010.13;;;6.53;100.00
4586;BME280;2305;50.118;8.952;2022-11-20T13:23:11;100004.66;;;6.56;100.00
4586;BME280;2305;50.118;8.952;2022-11-20T13:25:44;100011.88;;;6.52;100.00
4586;BME280;2305;50.118;8.952;2022-11-20T13:28:27;100007.88;;;6.59;100.00
4586;BME280;2305;50.118;8.952;2022-11-20T13:30:57;100000.91;;;6.60;100.00
4586;BME280;2305;50.118;8.952;2022-11-20T13:33:30;99994.09;;;6.57;100.00
4586;BME280;2305;50.118;8.952;2022-11-20T13:36:02;99993.25;;;6.57;100.00
4586;BME280;2305;50.118;8.952;2022-11-20T13:38:41;99987.09;;;6.58;100.00
4586;BME280;2305;50.118;8.952;2022-11-20T13:41:23;99983.00;;;6.54;100.00